Time;durP1;ratioP1;P1;durP2;ratioP2;P2;SDS_P1;SDS_P2;PMS_P1;PMS_P2;Temp;Humidity;BMP_temperature;BMP_pressure;BME280_temperature;BME280_humidity;BME280_pressure;Samples;Min_cycle;Max_cycle;Signal;HPM_P1;HPM_P2
2022/09/28 00:09:51;;;;;;;48.87;25.97;;;;;;;16.56;100.00;98880.94;31853782;27;20054;-72
2022/09/28 00:24:52;;;;;;;43.97;25.08;;;;;;;16.58;100.00;98883.94;31851086;27;20070;-72
2022/09/28 00:39:54;;;;;;;44.50;25.08;;;;;;;16.61;100.00;98866.53;31852085;27;20051;-72
2022/09/28 00:55:00;;;;;;;50.13;26.10;;;;;;;16.63;100.00;98861.34;31858387;27;20039;-72
2022/09/28 01:10:03;;;;;;;45.57;25.63;;;;;;;16.68;100.00;98866.09;31845758;27;20047;-72
2022/09/28 01:25:38;;;;;;;42.50;25.23;;;;;;;16.73;100.00;98872.09;31847419;27;20067;-71
2022/09/28 01:40:40;;;;;;;;;;;;;;;16.69;100.00;98873.09;31846187;27;20047;-72
2022/09/28 01:55:46;;;;;;;58.00;29.60;;;;;;;16.64;100.00;98876.53;31844250;27;19926;-72
2022/09/28 02:11:00;;;;;;;57.22;28.05;;;;;;;16.61;100.00;98877.47;31853408;27;20119;-72
2022/09/28 02:26:07;;;;;;;56.50;29.40;;;;;;;16.61;100.00;98888.44;31842085;27;20042;-72
2022/09/28 02:41:46;;;;;;;49.38;26.75;;;;;;;16.65;100.00;98899.97;31837881;27;20492;-71
2022/09/28 02:56:54;;;;;;;45.50;25.30;;;;;;;16.64;100.00;98879.28;31831005;27;20388;-72
2022/09/28 03:12:05;;;;;;;48.15;26.45;;;;;;;16.56;100.00;98869.97;31846470;27;20051;-72
2022/09/28 03:27:07;;;;;;;49.13;28.02;;;;;;;16.54;100.00;98872.44;31841020;27;20396;-72
2022/09/28 03:42:09;;;;;;;56.88;27.08;;;;;;;16.49;100.00;98870.44;31847078;27;20059;-72
2022/09/28 03:57:10;;;;;;;45.78;25.30;;;;;;;16.50;100.00;98876.66;31850457;27;20058;-72
2022/09/28 04:12:13;;;;;;;47.45;25.80;;;;;;;16.51;100.00;98900.84;31851711;27;20051;-72
2022/09/28 04:42:35;;;;;;;52.53;26.23;;;;;;;16.53;100.00;98876.44;31858289;27;20062;-72
2022/09/28 04:57:37;;;;;;;57.03;25.20;;;;;;;16.63;100.00;98896.94;31874201;27;20039;-72
2022/09/28 05:12:39;;;;;;;54.85;27.63;;;;;;;16.84;100.00;98916.00;31847640;27;20047;-72
2022/09/28 05:27:41;;;;;;;51.30;25.73;;;;;;;16.92;100.00;98906.84;31852177;27;20127;-72
2022/09/28 05:42:43;;;;;;;54.30;26.38;;;;;;;17.15;100.00;98896.00;31833830;27;20082;-73
2022/09/28 05:57:45;;;;;;;47.83;24.98;;;;;;;17.43;100.00;98887.88;31852451;27;20043;-71
2022/09/28 06:12:51;;;;;;;50.13;23.48;;;;;;;17.68;100.00;98903.44;31852584;27;20512;-74
2022/09/28 06:28:01;;;;;;;44.97;23.23;;;;;;;17.68;100.00;98915.16;31858666;27;20051;-73
2022/09/28 06:43:13;;;;;;;34.08;20.25;;;;;;;17.69;100.00;98915.91;31857489;27;20503;-73
2022/09/28 06:58:18;;;;;;;35.83;20.48;;;;;;;17.61;100.00;98939.56;31857793;27;20088;-72
2022/09/28 07:13:21;;;;;;;37.13;21.80;;;;;;;17.76;100.00;98937.38;31842226;27;20062;-72
2022/09/28 07:28:43;;;;;;;38.60;22.35;;;;;;;17.76;100.00;98926.41;31847411;27;20077;-71
2022/09/28 07:43:45;;;;;;;44.38;25.10;;;;;;;17.56;100.00;98935.53;31824202;27;20063;-73
2022/09/28 07:58:48;;;;;;;47.42;25.85;;;;;;;17.36;100.00;98928.25;31832048;27;20043;-71
2022/09/28 08:13:54;;;;;;;48.22;28.13;;;;;;;17.39;100.00;98899.84;31833189;27;20059;-75
2022/09/28 08:28:56;;;;;;;54.47;31.55;;;;;;;17.46;100.00;98897.88;31839485;27;20035;-77
2022/09/28 08:44:09;;;;;;;40.70;23.85;;;;;;;17.71;100.00;98872.28;31847346;27;20055;-74
2022/09/28 08:59:15;;;;;;;43.45;22.55;;;;;;;18.03;100.00;98895.50;31854020;27;20070;-72
2022/09/28 09:14:55;;;;;;;35.70;20.95;;;;;;;18.67;100.00;98910.25;31832384;27;20062;-74
2022/09/28 09:30:20;;;;;;;24.92;15.77;;;;;;;20.51;100.00;98914.13;31852856;27;20082;-73
2022/09/28 09:45:47;;;;;;;23.25;15.25;;;;;;;21.30;100.00;98889.97;31838454;27;20051;-72
2022/09/28 10:00:53;;;;;;;17.38;12.40;;;;;;;21.89;100.00;98895.72;31845763;27;20047;-74
2022/09/28 10:15:55;;;;;;;27.65;17.35;;;;;;;22.53;100.00;98910.28;31856246;27;20066;-75
2022/09/28 10:30:57;;;;;;;24.27;14.73;;;;;;;22.60;100.00;98909.66;31838662;27;20112;-75
2022/09/28 10:46:03;;;;;;;25.53;16.57;;;;;;;21.16;100.00;98909.69;31843762;27;20491;-75
2022/09/28 11:01:10;;;;;;;25.58;15.38;;;;;;;20.46;100.00;98901.13;31847419;27;20077;-75
2022/09/28 11:16:38;;;;;;;18.77;14.38;;;;;;;20.00;100.00;98902.72;31850712;27;20064;-73
2022/09/28 11:31:42;;;;;;;17.63;12.48;;;;;;;20.23;100.00;98916.34;31823198;27;20043;-75
2022/09/28 11:46:44;;;;;;;11.48;9.73;;;;;;;20.69;100.00;98907.19;31820197;27;20098;-74
2022/09/28 12:01:55;;;;;;;19.92;11.23;;;;;;;20.51;100.00;98908.63;31860128;27;20935;-73
2022/09/28 12:17:06;;;;;;;18.63;13.73;;;;;;;20.14;100.00;98913.88;31860191;27;20051;-82
2022/09/28 12:32:27;;;;;;;11.50;9.20;;;;;;;20.00;100.00;98910.97;31866484;27;20529;-76
2022/09/28 12:47:53;;;;;;;13.70;9.23;;;;;;;20.08;100.00;98928.44;31845223;27;20051;-75
2022/09/28 13:03:46;;;;;;;15.43;11.00;;;;;;;20.25;100.00;98935.84;31873935;27;20059;-75
2022/09/28 13:19:00;;;;;;;11.88;9.70;;;;;;;20.47;100.00;98932.94;31853603;27;20047;-75
2022/09/28 13:34:03;;;;;;;12.80;10.90;;;;;;;20.22;100.00;98939.63;31864038;27;20066;-75
2022/09/28 13:49:15;;;;;;;18.77;11.47;;;;;;;20.17;100.00;98962.44;31841898;27;20078;-76
2022/09/28 14:04:21;;;;;;;12.43;9.85;;;;;;;20.16;100.00;98966.47;31840677;27;20047;-76
2022/09/28 14:19:30;;;;;;;14.95;11.32;;;;;;;20.08;100.00;98969.75;31848557;27;20092;-76
2022/09/28 14:34:44;;;;;;;15.63;10.68;;;;;;;20.03;100.00;98964.31;31853273;27;20495;-74
2022/09/28 14:49:47;;;;;;;19.30;11.50;;;;;;;19.79;100.00;98978.72;31876319;27;20047;-76
2022/09/28 15:04:53;;;;;;;18.08;12.25;;;;;;;19.64;100.00;98979.00;31834385;27;20051;-75
2022/09/28 15:20:24;;;;;;;16.30;12.52;;;;;;;19.41;100.00;98978.31;31831851;27;20058;-76
2022/09/28 15:35:26;;;;;;;20.35;13.00;;;;;;;19.06;100.00;98989.94;31844658;27;20067;-75
2022/09/28 15:50:30;;;;;;;18.52;12.80;;;;;;;18.74;100.00;99025.19;31850597;27;20093;-75
2022/09/28 16:06:07;;;;;;;17.77;12.85;;;;;;;18.69;100.00;99047.94;31841129;27;20057;-75
2022/09/28 16:21:41;;;;;;;18.13;12.70;;;;;;;18.70;100.00;99043.94;31837847;27;20128;-76
2022/09/28 16:36:46;;;;;;;18.70;13.20;;;;;;;18.62;100.00;99053.94;31836379;27;20419;-75
2022/09/28 16:51:48;;;;;;;19.92;13.90;;;;;;;18.37;100.00;99065.84;31863675;27;20106;-75
2022/09/28 17:06:53;;;;;;;20.50;14.63;;;;;;;18.30;100.00;99080.06;31843798;27;20043;-75
2022/09/28 17:21:54;;;;;;;24.27;15.95;;;;;;;18.21;100.00;99102.25;31843149;27;20467;-74
2022/09/28 17:36:56;;;;;;;20.42;14.65;;;;;;;18.33;100.00;99103.81;31856676;27;20050;-73
2022/09/28 17:51:58;;;;;;;25.73;15.50;;;;;;;18.33;100.00;99103.81;31854029;27;20074;-75
2022/09/28 18:07:00;;;;;;;29.70;17.63;;;;;;;18.27;100.00;99119.50;31856386;27;20043;-76
2022/09/28 18:22:02;;;;;;;24.67;16.13;;;;;;;17.94;100.00;99131.13;31857771;27;20043;-75
2022/09/28 18:37:04;;;;;;;28.20;19.30;;;;;;;17.65;100.00;99134.94;31853732;27;21361;-76
2022/09/28 18:52:06;;;;;;;39.55;22.95;;;;;;;17.56;100.00;99140.59;31838997;27;20462;-75
2022/09/28 19:07:08;;;;;;;56.03;28.60;;;;;;;17.39;100.00;99146.72;31856276;27;20038;-76
2022/09/28 19:22:11;;;;;;;66.40;31.85;;;;;;;17.23;100.00;99166.53;31852736;27;20051;-76
2022/09/28 19:37:13;;;;;;;76.25;31.95;;;;;;;17.00;100.00;99182.03;31854102;27;20047;-77
2022/09/28 19:52:15;;;;;;;77.70;33.80;;;;;;;16.79;100.00;99204.47;31847421;27;20108;-75
2022/09/28 20:07:18;;;;;;;77.53;30.75;;;;;;;16.71;100.00;99226.09;31813778;27;20083;-76
2022/09/28 20:22:20;;;;;;;80.15;30.48;;;;;;;16.69;100.00;99234.78;31843628;27;20605;-75
2022/09/28 20:37:25;;;;;;;62.85;26.60;;;;;;;16.64;100.00;99232.72;31846415;27;20043;-74
2022/09/28 20:52:27;;;;;;;68.50;28.83;;;;;;;16.36;100.00;99246.03;31844101;27;20136;-74
2022/09/28 21:07:29;;;;;;;69.43;26.67;;;;;;;16.13;100.00;99259.91;31847522;27;20070;-73
2022/09/28 21:22:31;;;;;;;55.42;22.95;;;;;;;15.98;100.00;99277.13;31849208;27;20125;-73
2022/09/28 21:37:32;;;;;;;62.75;24.48;;;;;;;15.88;100.00;99305.81;31835967;27;20054;-72
2022/09/28 21:52:35;;;;;;;68.15;23.52;;;;;;;15.87;100.00;99331.69;31831793;27;20408;-74
2022/09/28 22:07:38;;;;;;;59.23;21.30;;;;;;;15.80;100.00;99334.81;31851010;27;20618;-74
2022/09/28 22:22:40;;;;;;;57.55;22.58;;;;;;;15.72;100.00;99344.63;31852035;27;20419;-73
2022/09/28 22:37:42;;;;;;;56.17;20.53;;;;;;;15.68;100.00;99354.97;31855263;27;20059;-74
2022/09/28 22:52:43;;;;;;;52.73;20.57;;;;;;;15.65;100.00;99364.13;31851027;27;20437;-73
2022/09/28 23:07:46;;;;;;;50.70;19.10;;;;;;;15.55;100.00;99371.66;31844523;27;20043;-74
2022/09/28 23:22:48;;;;;;;54.70;18.57;;;;;;;15.47;100.00;99386.16;31848121;27;20085;-74
2022/09/28 23:37:50;;;;;;;55.10;19.02;;;;;;;15.43;100.00;99394.53;31845122;27;20051;-73
2022/09/28 23:52:52;;;;;;;55.43;18.67;;;;;;;15.33;100.00;99409.50;31846641;27;20515;-73
